Time;durP1;ratioP1;P1;durP2;ratioP2;P2;SDS_P1;SDS_P2;PMS_P1;PMS_P2;Temp;Humidity;BMP_temperature;BMP_pressure;BME280_temperature;BME280_humidity;BME280_pressure;Samples;Min_cycle;Max_cycle;Signal;HPM_P1;HPM_P2
2022/06/25 00:01:37;;;;;;;3.10;1.63;;;;;;;;;;5280012;28;20039;-83
2022/06/25 00:05:27;;;;;;;3.17;1.80;;;;;;;;;;5271787;28;21460;-83
2022/06/25 00:07:00;;;;;;;2.35;2.13;;;;;;;;;;5292848;28;20041;-84
2022/06/25 00:09:31;;;;;;;2.60;1.60;;;;;;;;;;5286585;28;20460;-83
2022/06/25 00:14:52;;;;;;;3.08;1.90;;;;;;;;;;5286393;28;20263;-83
2022/06/25 00:17:23;;;;;;;3.07;2.00;;;;;;;;;;5270601;28;20035;-83
2022/06/25 00:19:55;;;;;;;2.60;1.90;;;;;;;;;;5286226;28;20332;-83
2022/06/25 00:22:26;;;;;;;2.30;1.98;;;;;;;;;;5290358;28;20029;-83
2022/06/25 00:24:57;;;;;;;2.88;2.13;;;;;;;;;;5283685;28;20037;-84
2022/06/25 00:27:28;;;;;;;4.03;2.27;;;;;;;;;;5270051;28;20024;-84
2022/06/25 00:30:00;;;;;;;3.63;2.13;;;;;;;;;;5267239;28;20361;-84
2022/06/25 00:32:31;;;;;;;4.60;2.28;;;;;;;;;;5271825;28;20934;-83
2022/06/25 00:35:03;;;;;;;5.38;2.35;;;;;;;;;;5283579;28;20374;-83
2022/06/25 00:37:34;;;;;;;2.70;2.30;;;;;;;;;;5290801;28;20020;-83
2022/06/25 00:40:06;;;;;;;4.53;2.50;;;;;;;;;;5267639;28;20082;-83
2022/06/25 00:42:37;;;;;;;4.18;2.72;;;;;;;;;;5286148;28;20279;-84
2022/06/25 00:45:08;;;;;;;3.97;2.77;;;;;;;;;;5271769;28;20515;-83
2022/06/25 00:47:40;;;;;;;5.38;2.80;;;;;;;;;;5292812;28;20274;-84
2022/06/25 00:50:11;;;;;;;3.78;3.35;;;;;;;;;;5304302;27;20951;-84
2022/06/25 00:52:43;;;;;;;3.53;2.60;;;;;;;;;;5308572;27;20024;-84
2022/06/25 00:55:17;;;;;;;4.32;2.90;;;;;;;;;;5290172;27;20067;-83
2022/06/25 00:57:49;;;;;;;3.58;2.70;;;;;;;;;;5315032;27;20020;-83
2022/06/25 01:00:20;;;;;;;3.08;2.60;;;;;;;;;;5310969;27;20036;-83
2022/06/25 01:02:51;;;;;;;7.57;3.37;;;;;;;;;;5314661;27;20050;-83
2022/06/25 01:05:23;;;;;;;4.40;3.07;;;;;;;;;;5292745;27;20277;-83
2022/06/25 01:07:54;;;;;;;4.17;3.20;;;;;;;;;;5312621;27;20270;-83
2022/06/25 01:10:25;;;;;;;6.63;3.30;;;;;;;;;;5314443;27;20271;-83
2022/06/25 01:12:56;;;;;;;4.40;3.10;;;;;;;;;;5289217;27;20033;-83
2022/06/25 01:15:28;;;;;;;5.00;3.43;;;;;;;;;;5313638;27;20274;-84
2022/06/25 01:17:59;;;;;;;5.05;3.20;;;;;;;;;;5298469;27;20649;-83
2022/06/25 01:20:30;;;;;;;4.50;3.53;;;;;;;;;;5315562;27;20036;-83
2022/06/25 01:23:01;;;;;;;3.90;3.30;;;;;;;;;;5324698;27;20272;-83
2022/06/25 01:25:34;;;;;;;5.03;3.72;;;;;;;;;;5309549;27;20698;-83
2022/06/25 01:28:06;;;;;;;3.88;3.45;;;;;;;;;;5303261;27;20028;-84
2022/06/25 01:30:37;;;;;;;4.82;3.53;;;;;;;;;;5313499;27;20028;-84
2022/06/25 01:33:09;;;;;;;5.25;3.88;;;;;;;;;;5315957;27;20028;-83
2022/06/25 01:35:40;;;;;;;6.07;3.23;;;;;;;;;;5314338;27;20028;-84
2022/06/25 01:38:11;;;;;;;5.32;3.92;;;;;;;;;;5318658;27;20290;-83
2022/06/25 01:40:42;;;;;;;4.25;3.45;;;;;;;;;;5327926;27;20074;-84
2022/06/25 01:43:14;;;;;;;4.10;3.03;;;;;;;;;;5292330;27;20028;-84
2022/06/25 01:45:46;;;;;;;5.00;3.50;;;;;;;;;;5314114;27;20039;-84
2022/06/25 01:48:17;;;;;;;4.38;3.60;;;;;;;;;;5297346;27;20028;-84
2022/06/25 01:50:48;;;;;;;4.70;3.20;;;;;;;;;;5325679;27;21300;-84
2022/06/25 01:53:19;;;;;;;7.80;3.35;;;;;;;;;;5293823;27;20522;-84
2022/06/25 01:55:51;;;;;;;4.85;3.30;;;;;;;;;;5325797;27;20451;-84
2022/06/25 01:58:22;;;;;;;4.90;3.57;;;;;;;;;;5318397;27;20029;-83
2022/06/25 02:00:54;;;;;;;6.15;3.55;;;;;;;;;;5292907;27;20167;-84
2022/06/25 02:03:25;;;;;;;6.63;3.40;;;;;;;;;;5306730;27;20051;-84
2022/06/25 02:05:57;;;;;;;5.18;4.05;;;;;;;;;;5296833;27;20267;-84
2022/06/25 02:08:32;;;;;;;7.13;3.43;;;;;;;;;;5312016;27;20051;-83
2022/06/25 02:11:08;;;;;;;5.68;3.45;;;;;;;;;;5291539;27;20734;-84
2022/06/25 02:13:39;;;;;;;5.45;3.33;;;;;;;;;;5316174;27;20032;-84
2022/06/25 02:16:10;;;;;;;5.20;3.60;;;;;;;;;;5296894;27;20043;-83
2022/06/25 02:18:41;;;;;;;6.05;3.80;;;;;;;;;;5313684;27;20281;-83
2022/06/25 02:21:13;;;;;;;6.00;3.60;;;;;;;;;;5309116;27;20063;-84
2022/06/25 02:23:44;;;;;;;4.47;3.70;;;;;;;;;;5308074;27;20028;-83
2022/06/25 02:26:16;;;;;;;7.50;3.37;;;;;;;;;;5294318;27;20120;-84
2022/06/25 02:28:47;;;;;;;6.67;3.43;;;;;;;;;;5305926;27;20654;-83
2022/06/25 02:31:18;;;;;;;6.80;3.72;;;;;;;;;;5305292;27;20082;-84
2022/06/25 02:33:49;;;;;;;6.23;3.80;;;;;;;;;;5309179;27;20090;-84
2022/06/25 02:36:20;;;;;;;5.70;4.00;;;;;;;;;;5293933;27;20275;-84
2022/06/25 02:38:52;;;;;;;10.40;4.32;;;;;;;;;;5310519;27;20642;-84
2022/06/25 02:41:23;;;;;;;7.22;4.20;;;;;;;;;;5295536;27;20151;-84
2022/06/25 02:43:55;;;;;;;5.83;4.00;;;;;;;;;;5309854;27;20039;-84
2022/06/25 02:46:26;;;;;;;8.43;4.47;;;;;;;;;;5289825;27;20096;-84
2022/06/25 02:48:57;;;;;;;8.30;4.22;;;;;;;;;;5310481;27;20067;-84
2022/06/25 02:51:28;;;;;;;6.30;4.90;;;;;;;;;;5310418;27;20048;-84
2022/06/25 02:54:00;;;;;;;4.95;4.25;;;;;;;;;;5312242;27;20643;-84
2022/06/25 02:59:21;;;;;;;6.07;4.30;;;;;;;;;;5308333;27;20495;-84
2022/06/25 03:01:55;;;;;;;7.60;5.15;;;;;;;;;;5310680;27;20133;-84
2022/06/25 03:04:26;;;;;;;8.23;5.78;;;;;;;;;;5310956;27;20136;-84
2022/06/25 03:07:00;;;;;;;10.03;5.50;;;;;;;;;;5311783;27;20069;-84
2022/06/25 03:09:32;;;;;;;7.15;5.97;;;;;;;;;;5291047;27;20282;-84
2022/06/25 03:12:04;;;;;;;5.70;4.72;;;;;;;;;;5311442;27;20016;-83
2022/06/25 03:14:35;;;;;;;6.22;5.20;;;;;;;;;;5312934;27;20044;-83
2022/06/25 03:17:06;;;;;;;5.53;4.80;;;;;;;;;;5312204;27;20020;-83
2022/06/25 03:19:37;;;;;;;5.37;4.97;;;;;;;;;;5284630;27;20039;-83
2022/06/25 03:22:09;;;;;;;7.70;5.60;;;;;;;;;;5288823;27;20566;-83
2022/06/25 03:24:40;;;;;;;7.45;5.20;;;;;;;;;;5305807;27;20610;-83
2022/06/25 03:27:11;;;;;;;9.45;5.28;;;;;;;;;;5290149;27;20041;-83
2022/06/25 03:29:42;;;;;;;5.67;5.10;;;;;;;;;;5323383;27;20129;-83
2022/06/25 03:32:13;;;;;;;8.90;5.68;;;;;;;;;;5305913;27;20271;-84
2022/06/25 03:34:45;;;;;;;6.97;4.63;;;;;;;;;;5318580;27;20036;-83
2022/06/25 03:37:16;;;;;;;9.37;4.83;;;;;;;;;;5311023;27;20020;-84
2022/06/25 03:39:47;;;;;;;6.63;4.80;;;;;;;;;;5294972;27;20298;-84
2022/06/25 03:42:18;;;;;;;7.40;4.78;;;;;;;;;;5309438;27;20778;-84
2022/06/25 03:44:49;;;;;;;5.97;4.13;;;;;;;;;;5282960;27;20098;-84
2022/06/25 03:47:21;;;;;;;4.78;4.20;;;;;;;;;;5310194;27;20024;-84
2022/06/25 03:49:53;;;;;;;5.27;3.87;;;;;;;;;;5295027;27;20059;-84
2022/06/25 03:52:25;;;;;;;4.70;4.20;;;;;;;;;;5311119;27;20286;-84
2022/06/25 03:54:56;;;;;;;5.85;4.15;;;;;;;;;;5289496;27;20028;-84
2022/06/25 03:57:28;;;;;;;4.63;3.93;;;;;;;;;;5310928;27;20036;-84
2022/06/25 03:59:59;;;;;;;5.07;3.80;;;;;;;;;;5309918;27;20294;-84
2022/06/25 04:02:30;;;;;;;8.03;4.30;;;;;;;;;;5306181;27;20124;-84
2022/06/25 04:05:02;;;;;;;5.13;3.90;;;;;;;;;;5288984;27;20078;-84
2022/06/25 04:07:33;;;;;;;4.82;4.10;;;;;;;;;;5288559;27;20048;-84
2022/06/25 04:10:04;;;;;;;5.43;4.03;;;;;;;;;;5307764;27;20032;-84
2022/06/25 04:12:36;;;;;;;7.35;4.20;;;;;;;;;;5292172;27;20245;-84
2022/06/25 04:15:07;;;;;;;6.10;4.10;;;;;;;;;;5289153;27;20108;-84
2022/06/25 04:17:38;;;;;;;6.97;3.85;;;;;;;;;;5291863;27;20074;-84
2022/06/25 04:20:10;;;;;;;4.88;3.50;;;;;;;;;;5324701;27;20341;-83
2022/06/25 04:22:41;;;;;;;5.25;4.05;;;;;;;;;;5312209;27;20077;-83
2022/06/25 04:25:12;;;;;;;6.97;4.10;;;;;;;;;;5321689;27;20040;-83
2022/06/25 04:30:33;;;;;;;5.00;3.30;;;;;;;;;;5320328;27;20106;-83
2022/06/25 04:33:05;;;;;;;6.50;3.55;;;;;;;;;;5314466;27;20058;-83
2022/06/25 04:35:36;;;;;;;4.70;3.13;;;;;;;;;;5320609;27;20039;-83
2022/06/25 04:38:08;;;;;;;4.25;3.30;;;;;;;;;;5318867;27;20105;-83
2022/06/25 04:40:42;;;;;;;5.20;3.00;;;;;;;;;;5287201;27;20036;-83
2022/06/25 04:43:13;;;;;;;3.07;2.80;;;;;;;;;;5300007;27;20015;-83
2022/06/25 04:45:44;;;;;;;5.93;2.87;;;;;;;;;;5317556;27;20085;-83
2022/06/25 04:48:15;;;;;;;6.17;3.37;;;;;;;;;;5295065;27;20048;-83
2022/06/25 04:50:47;;;;;;;6.77;2.73;;;;;;;;;;5320215;27;20061;-83
2022/06/25 04:53:18;;;;;;;3.92;2.60;;;;;;;;;;5317261;27;20251;-83
2022/06/25 04:55:49;;;;;;;3.75;2.42;;;;;;;;;;5295958;27;20036;-83
2022/06/25 04:58:20;;;;;;;5.93;2.90;;;;;;;;;;5304657;27;20024;-83
2022/06/25 05:00:52;;;;;;;3.72;2.70;;;;;;;;;;5310532;27;20423;-83
2022/06/25 05:03:23;;;;;;;3.47;2.67;;;;;;;;;;5295705;27;20511;-83
2022/06/25 05:05:54;;;;;;;4.10;3.13;;;;;;;;;;5301327;27;20888;-83
2022/06/25 05:08:25;;;;;;;3.67;2.80;;;;;;;;;;5318375;27;20024;-83
2022/06/25 05:10:57;;;;;;;4.55;2.90;;;;;;;;;;5316244;27;20281;-83
2022/06/25 05:13:28;;;;;;;3.58;2.88;;;;;;;;;;5290225;27;20032;-83
2022/06/25 05:15:59;;;;;;;5.53;2.47;;;;;;;;;;5325405;27;20032;-83
2022/06/25 05:18:30;;;;;;;4.93;3.00;;;;;;;;;;5311935;27;20524;-83
2022/06/25 05:21:01;;;;;;;4.70;2.70;;;;;;;;;;5320265;27;20290;-83
2022/06/25 05:23:32;;;;;;;6.33;2.93;;;;;;;;;;5330820;27;20042;-83
2022/06/25 05:26:04;;;;;;;5.43;2.63;;;;;;;;;;5317423;27;20039;-83
2022/06/25 05:28:36;;;;;;;4.30;3.17;;;;;;;;;;5316223;27;20646;-83
2022/06/25 05:31:10;;;;;;;4.80;2.50;;;;;;;;;;5312416;27;20282;-84
2022/06/25 05:33:41;;;;;;;9.98;3.00;;;;;;;;;;5313210;27;20397;-84
2022/06/25 05:36:13;;;;;;;2.90;2.30;;;;;;;;;;5319990;27;20074;-84
2022/06/25 05:38:44;;;;;;;2.97;2.50;;;;;;;;;;5289976;27;20290;-84
2022/06/25 05:41:15;;;;;;;3.47;2.60;;;;;;;;;;5314877;27;20297;-84
2022/06/25 05:43:46;;;;;;;3.93;2.30;;;;;;;;;;5309664;27;20408;-83
2022/06/25 05:46:17;;;;;;;6.50;2.97;;;;;;;;;;5292893;27;20377;-84
2022/06/25 05:48:48;;;;;;;5.20;2.67;;;;;;;;;;5318250;27;20046;-84
2022/06/25 05:51:20;;;;;;;6.30;2.67;;;;;;;;;;5294095;27;20083;-84
2022/06/25 05:53:51;;;;;;;5.07;2.47;;;;;;;;;;5312393;27;20368;-84
2022/06/25 05:56:22;;;;;;;5.20;2.73;;;;;;;;;;5312256;27;20024;-83
2022/06/25 05:58:55;;;;;;;5.40;3.13;;;;;;;;;;5314105;27;20032;-83
2022/06/25 06:01:27;;;;;;;4.15;2.80;;;;;;;;;;5312260;27;20039;-84
2022/06/25 06:03:58;;;;;;;4.30;2.60;;;;;;;;;;5298541;27;20477;-83
2022/06/25 06:06:30;;;;;;;4.73;2.90;;;;;;;;;;5316513;27;20310;-84
2022/06/25 06:09:01;;;;;;;6.18;2.80;;;;;;;;;;5310450;27;20039;-84
2022/06/25 06:11:32;;;;;;;6.37;2.63;;;;;;;;;;5300518;27;20123;-84
2022/06/25 06:14:03;;;;;;;6.47;2.60;;;;;;;;;;5311868;27;20028;-83
2022/06/25 06:16:35;;;;;;;6.63;2.80;;;;;;;;;;5288616;27;20785;-84
2022/06/25 06:19:06;;;;;;;3.60;2.00;;;;;;;;;;5321414;27;20182;-83
2022/06/25 06:21:37;;;;;;;5.47;2.50;;;;;;;;;;5296795;28;20480;-83
2022/06/25 06:24:08;;;;;;;6.53;2.57;;;;;;;;;;5302853;28;20480;-83
2022/06/25 06:26:39;;;;;;;6.45;2.42;;;;;;;;;;5305093;28;20032;-84
2022/06/25 06:29:11;;;;;;;5.43;3.00;;;;;;;;;;5301217;27;20123;-83
2022/06/25 06:31:42;;;;;;;6.05;2.65;;;;;;;;;;5309716;27;20025;-83
2022/06/25 06:34:13;;;;;;;4.65;2.97;;;;;;;;;;5287001;27;20098;-83
2022/06/25 06:36:45;;;;;;;5.47;2.35;;;;;;;;;;5298793;27;20311;-83
2022/06/25 06:39:19;;;;;;;9.07;2.38;;;;;;;;;;5317222;27;20358;-83
2022/06/25 06:41:52;;;;;;;4.68;2.92;;;;;;;;;;5312704;27;20487;-83
2022/06/25 06:44:23;;;;;;;5.72;2.95;;;;;;;;;;5310606;27;20318;-83
2022/06/25 06:46:55;;;;;;;3.63;2.70;;;;;;;;;;5314380;27;20028;-84
2022/06/25 06:49:26;;;;;;;4.10;2.78;;;;;;;;;;5293384;28;20286;-84
2022/06/25 06:51:57;;;;;;;6.07;2.88;;;;;;;;;;5313357;27;20031;-84
2022/06/25 06:54:28;;;;;;;4.60;2.55;;;;;;;;;;5330100;27;20078;-84
2022/06/25 06:56:59;;;;;;;4.30;2.73;;;;;;;;;;5296640;27;20029;-84
2022/06/25 06:59:31;;;;;;;3.70;2.23;;;;;;;;;;5309321;27;20111;-84
2022/06/25 07:02:10;;;;;;;5.88;2.70;;;;;;;;;;5294110;27;20111;-84
2022/06/25 07:04:41;;;;;;;5.95;2.67;;;;;;;;;;5289404;27;20390;-84
2022/06/25 07:07:12;;;;;;;5.57;2.35;;;;;;;;;;5291449;27;20053;-85
2022/06/25 07:09:44;;;;;;;5.80;2.43;;;;;;;;;;5312614;27;20024;-84
2022/06/25 07:12:15;;;;;;;6.60;2.33;;;;;;;;;;5333596;27;20381;-84
2022/06/25 07:14:46;;;;;;;7.28;2.20;;;;;;;;;;5310087;27;20064;-84
2022/06/25 07:17:17;;;;;;;9.35;2.53;;;;;;;;;;5290446;27;20020;-85
2022/06/25 07:19:49;;;;;;;8.60;2.57;;;;;;;;;;5324883;27;20459;-84
2022/06/25 07:22:20;;;;;;;6.40;1.80;;;;;;;;;;5295277;27;20024;-84
2022/06/25 07:25:00;;;;;;;7.87;2.60;;;;;;;;;;5306040;27;20043;-84
2022/06/25 07:27:43;;;;;;;3.83;2.00;;;;;;;;;;5288932;27;20036;-84
2022/06/25 07:30:15;;;;;;;5.47;2.25;;;;;;;;;;5304219;28;20484;-84
2022/06/25 07:32:46;;;;;;;4.13;1.88;;;;;;;;;;5327045;27;20116;-84
2022/06/25 07:35:20;;;;;;;4.30;1.85;;;;;;;;;;5312084;27;20031;-85
2022/06/25 07:37:51;;;;;;;5.22;1.98;;;;;;;;;;5303917;28;20047;-84
2022/06/25 07:40:24;;;;;;;3.15;1.65;;;;;;;;;;5324122;27;20412;-84
2022/06/25 07:42:56;;;;;;;4.47;1.77;;;;;;;;;;5304927;28;20032;-84
2022/06/25 07:45:28;;;;;;;3.55;1.75;;;;;;;;;;5293533;28;20094;-84
2022/06/25 07:47:59;;;;;;;3.85;1.70;;;;;;;;;;5303556;28;20028;-84
2022/06/25 07:53:21;;;;;;;3.10;1.70;;;;;;;;;;5321211;27;20420;-84
2022/06/25 07:55:52;;;;;;;3.83;1.83;;;;;;;;;;5310287;27;20089;-83
2022/06/25 07:58:23;;;;;;;3.33;1.63;;;;;;;;;;5315277;28;20073;-83
2022/06/25 08:00:54;;;;;;;3.25;1.60;;;;;;;;;;5305258;28;20063;-84
2022/06/25 08:03:26;;;;;;;6.18;2.25;;;;;;;;;;5321419;27;20020;-84
2022/06/25 08:05:58;;;;;;;4.78;2.10;;;;;;;;;;5304534;27;20027;-84
2022/06/25 08:08:29;;;;;;;7.10;2.35;;;;;;;;;;5320824;27;20024;-84
2022/06/25 08:11:00;;;;;;;4.03;1.60;;;;;;;;;;5304946;28;20102;-84
2022/06/25 08:13:38;;;;;;;5.82;1.50;;;;;;;;;;5306044;28;20388;-83
2022/06/25 08:16:09;;;;;;;2.47;1.30;;;;;;;;;;5307311;27;20548;-84
2022/06/25 08:18:41;;;;;;;8.00;2.13;;;;;;;;;;5302370;27;20116;-83
2022/06/25 08:21:13;;;;;;;8.00;1.48;;;;;;;;;;5305455;27;20028;-84
2022/06/25 08:23:44;;;;;;;5.63;1.75;;;;;;;;;;5322726;27;20066;-84
2022/06/25 08:26:16;;;;;;;5.20;1.75;;;;;;;;;;5301567;28;20056;-84
2022/06/25 08:28:47;;;;;;;4.82;1.70;;;;;;;;;;5300602;28;20171;-83
2022/06/25 08:31:19;;;;;;;4.53;1.70;;;;;;;;;;5336324;27;20393;-84
2022/06/25 08:33:50;;;;;;;4.07;1.60;;;;;;;;;;5305421;28;20028;-84
2022/06/25 08:36:22;;;;;;;2.80;1.33;;;;;;;;;;5323655;28;20047;-84
2022/06/25 08:38:56;;;;;;;2.90;1.33;;;;;;;;;;5304961;28;20028;-84
2022/06/25 08:41:27;;;;;;;2.20;1.50;;;;;;;;;;5303782;27;20043;-84
2022/06/25 08:43:59;;;;;;;3.58;1.58;;;;;;;;;;5318883;27;20028;-84
2022/06/25 08:46:32;;;;;;;2.28;1.27;;;;;;;;;;5309129;27;20051;-84
2022/06/25 08:49:10;;;;;;;4.93;1.35;;;;;;;;;;5288857;27;20032;-85
2022/06/25 08:51:43;;;;;;;5.82;1.30;;;;;;;;;;5286444;28;20507;-85
2022/06/25 08:54:15;;;;;;;4.25;1.30;;;;;;;;;;5312938;27;20036;-84
2022/06/25 08:56:49;;;;;;;2.95;1.05;;;;;;;;;;5316339;27;20070;-84
2022/06/25 08:59:27;;;;;;;5.90;1.38;;;;;;;;;;5318226;28;20129;-85
2022/06/25 09:02:00;;;;;;;3.95;1.17;;;;;;;;;;5364991;27;20020;-85
2022/06/25 09:04:35;;;;;;;2.50;1.30;;;;;;;;;;5348109;27;20031;-84
2022/06/25 09:07:10;;;;;;;3.88;1.75;;;;;;;;;;5352016;27;20035;-83
2022/06/25 09:09:44;;;;;;;;;;;;;;;;;;5321996;28;20059;-84
2022/06/25 09:12:16;;;;;;;4.30;1.40;;;;;;;;;;5309931;28;20012;-85
2022/06/25 09:14:47;;;;;;;2.45;1.35;;;;;;;;;;5299657;28;20147;-84
2022/06/25 09:17:26;;;;;;;4.97;1.30;;;;;;;;;;5295501;28;20027;-83
2022/06/25 09:20:01;;;;;;;6.57;1.40;;;;;;;;;;5294997;28;20029;-83
2022/06/25 09:22:35;;;;;;;4.93;1.37;;;;;;;;;;5290359;27;20051;-83
2022/06/25 09:25:06;;;;;;;4.65;1.27;;;;;;;;;;5315616;27;20043;-83
2022/06/25 09:27:38;;;;;;;4.25;1.38;;;;;;;;;;5311672;28;20020;-84
2022/06/25 09:30:12;;;;;;;3.35;1.30;;;;;;;;;;5341718;27;20024;-84
2022/06/25 09:32:45;;;;;;;4.22;1.40;;;;;;;;;;5342108;27;20040;-83
2022/06/25 09:35:29;;;;;;;3.35;1.10;;;;;;;;;;5305871;27;20053;-84
2022/06/25 09:38:07;;;;;;;4.30;1.27;;;;;;;;;;5310868;27;20024;-84
2022/06/25 09:40:39;;;;;;;5.82;1.08;;;;;;;;;;5307625;28;20039;-84
2022/06/25 09:43:17;;;;;;;2.58;1.30;;;;;;;;;;5305470;27;20020;-84
2022/06/25 09:45:52;;;;;;;7.85;1.23;;;;;;;;;;5312143;27;20142;-84
2022/06/25 09:48:27;;;;;;;2.90;1.17;;;;;;;;;;5326735;28;20091;-84
2022/06/25 09:51:08;;;;;;;4.07;1.38;;;;;;;;;;5307604;28;20094;-84
2022/06/25 09:53:58;;;;;;;2.92;1.30;;;;;;;;;;5300923;28;20036;-84
2022/06/25 09:56:34;;;;;;;3.50;1.27;;;;;;;;;;5289797;28;20031;-84
2022/06/25 09:59:08;;;;;;;3.38;1.15;;;;;;;;;;5299777;27;20525;-84
2022/06/25 10:01:40;;;;;;;3.22;1.20;;;;;;;;;;5305503;28;20069;-84
2022/06/25 10:04:20;;;;;;;3.42;1.58;;;;;;;;;;5323799;27;20476;-84
2022/06/25 10:06:54;;;;;;;2.75;0.90;;;;;;;;;;5305997;28;20031;-84
2022/06/25 10:09:26;;;;;;;2.10;1.00;;;;;;;;;;5307318;28;20409;-84
2022/06/25 10:11:57;;;;;;;3.30;1.00;;;;;;;;;;5293340;28;20060;-84
2022/06/25 10:14:34;;;;;;;3.60;1.02;;;;;;;;;;5285851;28;20041;-84
2022/06/25 10:17:06;;;;;;;3.55;1.10;;;;;;;;;;5306413;27;20411;-84
2022/06/25 10:19:40;;;;;;;3.60;1.13;;;;;;;;;;5325974;28;20403;-84
2022/06/25 10:22:12;;;;;;;7.28;1.17;;;;;;;;;;5290948;28;20455;-83
2022/06/25 10:24:46;;;;;;;4.97;1.25;;;;;;;;;;5307270;28;20115;-84
2022/06/25 10:27:20;;;;;;;1.15;0.63;;;;;;;;;;5326617;28;20024;-84
2022/06/25 10:29:55;;;;;;;1.33;0.60;;;;;;;;;;5327403;28;20108;-84
2022/06/25 10:32:29;;;;;;;1.73;0.80;;;;;;;;;;5350440;27;20330;-83
2022/06/25 10:35:04;;;;;;;2.65;0.90;;;;;;;;;;5307580;28;20051;-83
2022/06/25 10:37:57;;;;;;;1.35;0.70;;;;;;;;;;5304742;28;20025;-84
2022/06/25 10:40:33;;;;;;;1.15;0.60;;;;;;;;;;5304545;28;20042;-84
2022/06/25 10:43:36;;;;;;;2.38;0.73;;;;;;;;;;5285639;28;20029;-85
2022/06/25 10:46:27;;;;;;;1.80;0.57;;;;;;;;;;5301375;28;20052;-84
2022/06/25 10:49:01;;;;;;;2.95;0.45;;;;;;;;;;5303915;27;20100;-84
2022/06/25 10:51:39;;;;;;;1.63;0.40;;;;;;;;;;5286097;28;20043;-84
2022/06/25 10:54:19;;;;;;;1.70;0.77;;;;;;;;;;5291144;28;20445;-84
2022/06/25 10:56:58;;;;;;;2.20;0.50;;;;;;;;;;5340702;27;20335;-84
2022/06/25 11:02:41;;;;;;;1.17;0.50;;;;;;;;;;5309826;27;20032;-84
2022/06/25 11:05:19;;;;;;;1.58;0.50;;;;;;;;;;5335315;27;20075;-84
2022/06/25 11:07:51;;;;;;;1.25;0.63;;;;;;;;;;5302003;28;20016;-84
2022/06/25 11:10:33;;;;;;;2.35;0.50;;;;;;;;;;5303501;28;20031;-84
2022/06/25 11:13:04;;;;;;;1.45;0.50;;;;;;;;;;5288882;28;20029;-84
2022/06/25 11:15:39;;;;;;;1.65;0.55;;;;;;;;;;5299908;28;20595;-84
2022/06/25 11:18:11;;;;;;;2.60;0.73;;;;;;;;;;5339876;27;20024;-84
2022/06/25 11:20:42;;;;;;;1.75;0.65;;;;;;;;;;5306388;28;20113;-83
2022/06/25 11:23:14;;;;;;;3.67;0.70;;;;;;;;;;5320522;27;20060;-84
2022/06/25 11:28:48;;;;;;;1.52;0.60;;;;;;;;;;5318036;28;20020;-84
2022/06/25 11:31:21;;;;;;;3.75;0.50;;;;;;;;;;5306112;28;20448;-84
2022/06/25 11:33:53;;;;;;;2.65;0.60;;;;;;;;;;5339597;27;20020;-83
2022/06/25 11:36:24;;;;;;;1.63;0.50;;;;;;;;;;5305544;28;20039;-83
2022/06/25 11:38:56;;;;;;;3.85;0.70;;;;;;;;;;5338753;27;20028;-84
2022/06/25 11:41:29;;;;;;;2.00;0.80;;;;;;;;;;5291308;28;20127;-84
2022/06/25 11:44:04;;;;;;;3.63;0.80;;;;;;;;;;5317433;28;20054;-84
2022/06/25 11:46:35;;;;;;;;;;;;;;;;;;5296337;28;20051;-84
2022/06/25 11:49:11;;;;;;;2.45;0.98;;;;;;;;;;5305820;28;19938;-84
2022/06/25 11:51:51;;;;;;;1.50;0.40;;;;;;;;;;5340464;27;20456;-84
2022/06/25 11:54:23;;;;;;;1.15;0.63;;;;;;;;;;5303838;28;20063;-83
2022/06/25 11:56:55;;;;;;;1.13;0.55;;;;;;;;;;5285903;28;20155;-83
2022/06/25 11:59:29;;;;;;;2.95;0.60;;;;;;;;;;5304227;28;20074;-84
2022/06/25 12:02:03;;;;;;;0.98;0.60;;;;;;;;;;5301512;28;20520;-84
2022/06/25 12:04:49;;;;;;;3.33;0.50;;;;;;;;;;5304950;28;20117;-84
2022/06/25 12:07:24;;;;;;;1.75;0.40;;;;;;;;;;5303911;28;20035;-84
2022/06/25 12:09:56;;;;;;;2.55;0.43;;;;;;;;;;5305213;28;20024;-84
2022/06/25 12:12:28;;;;;;;1.27;0.73;;;;;;;;;;5300666;28;20029;-83
2022/06/25 12:15:01;;;;;;;0.63;0.60;;;;;;;;;;5283881;28;20032;-84
2022/06/25 12:17:36;;;;;;;1.02;0.70;;;;;;;;;;5292890;28;20418;-84
2022/06/25 12:20:11;;;;;;;7.32;0.93;;;;;;;;;;5323890;28;20055;-84
2022/06/25 12:22:48;;;;;;;2.88;0.88;;;;;;;;;;5304615;28;20044;-84
2022/06/25 12:25:32;;;;;;;2.08;0.70;;;;;;;;;;5304932;28;20081;-84
2022/06/25 12:28:04;;;;;;;1.55;0.75;;;;;;;;;;5301265;28;20025;-84
2022/06/25 12:30:36;;;;;;;1.42;0.65;;;;;;;;;;5302098;28;20115;-85
2022/06/25 12:33:14;;;;;;;1.65;0.60;;;;;;;;;;5325433;27;20158;-84
2022/06/25 12:35:45;;;;;;;1.25;0.73;;;;;;;;;;5308816;28;20034;-84
2022/06/25 12:38:17;;;;;;;1.25;0.63;;;;;;;;;;5309407;28;20028;-84
2022/06/25 12:40:57;;;;;;;2.13;0.70;;;;;;;;;;5308329;28;20090;-84
2022/06/25 12:43:41;;;;;;;1.65;0.82;;;;;;;;;;5289263;27;20347;-83
2022/06/25 12:46:13;;;;;;;1.40;0.70;;;;;;;;;;5287212;28;20047;-83
2022/06/25 12:49:01;;;;;;;3.25;0.80;;;;;;;;;;5287883;28;20441;-83
2022/06/25 12:51:36;;;;;;;2.67;0.95;;;;;;;;;;5287769;28;20047;-83
2022/06/25 12:54:25;;;;;;;2.00;0.90;;;;;;;;;;5288847;28;20512;-83
2022/06/25 12:57:06;;;;;;;2.03;0.93;;;;;;;;;;5308395;27;20029;-84
2022/06/25 12:59:45;;;;;;;2.25;1.02;;;;;;;;;;5341945;27;20087;-83
2022/06/25 13:02:31;;;;;;;3.80;1.00;;;;;;;;;;5329365;28;20099;-83
2022/06/25 13:05:12;;;;;;;1.25;0.90;;;;;;;;;;5342935;27;20047;-83
2022/06/25 13:07:52;;;;;;;2.15;1.10;;;;;;;;;;5321698;27;20029;-84
2022/06/25 13:10:25;;;;;;;3.00;1.10;;;;;;;;;;5287352;27;20044;-83
2022/06/25 13:13:04;;;;;;;5.63;1.00;;;;;;;;;;5311737;27;20021;-84
2022/06/25 13:15:39;;;;;;;3.38;1.05;;;;;;;;;;5285678;28;20485;-83
2022/06/25 13:18:14;;;;;;;3.38;1.20;;;;;;;;;;5287029;28;20146;-84
2022/06/25 13:20:51;;;;;;;2.97;0.98;;;;;;;;;;5307738;27;20096;-84
2022/06/25 13:23:29;;;;;;;2.45;0.85;;;;;;;;;;5302241;28;20029;-84
2022/06/25 13:26:03;;;;;;;4.82;0.80;;;;;;;;;;5304887;28;20032;-84
2022/06/25 13:28:35;;;;;;;1.58;0.70;;;;;;;;;;5318068;27;20032;-84
2022/06/25 13:31:16;;;;;;;2.65;0.70;;;;;;;;;;5304743;28;20029;-85
2022/06/25 13:33:50;;;;;;;2.28;0.80;;;;;;;;;;5286352;28;20037;-84
2022/06/25 13:36:30;;;;;;;3.20;0.70;;;;;;;;;;5288607;28;20560;-84
2022/06/25 13:39:13;;;;;;;2.58;0.70;;;;;;;;;;5287056;28;20032;-84
2022/06/25 13:41:53;;;;;;;2.53;0.68;;;;;;;;;;5321233;27;20471;-84
2022/06/25 13:44:41;;;;;;;4.07;0.60;;;;;;;;;;5287423;28;20032;-84
2022/06/25 13:47:13;;;;;;;3.42;1.20;;;;;;;;;;5290060;28;20036;-83
2022/06/25 13:49:46;;;;;;;1.35;0.55;;;;;;;;;;5324017;27;20053;-84
2022/06/25 13:52:18;;;;;;;1.25;0.60;;;;;;;;;;5303802;28;20025;-82
2022/06/25 13:54:54;;;;;;;0.70;0.40;;;;;;;;;;5320661;28;20039;-84
2022/06/25 13:57:26;;;;;;;1.63;0.60;;;;;;;;;;5359525;27;20043;-83
2022/06/25 14:00:11;;;;;;;0.95;0.60;;;;;;;;;;5323650;28;20041;-84
2022/06/25 14:02:42;;;;;;;3.25;0.70;;;;;;;;;;5318462;28;20023;-84
2022/06/25 14:05:21;;;;;;;0.90;0.50;;;;;;;;;;5312251;27;20120;-84
2022/06/25 14:08:02;;;;;;;2.75;0.60;;;;;;;;;;5308338;28;20059;-84
2022/06/25 14:10:38;;;;;;;2.15;0.52;;;;;;;;;;5308526;28;20035;-84
2022/06/25 14:13:26;;;;;;;0.93;0.50;;;;;;;;;;5299553;28;20057;-84
2022/06/25 14:16:09;;;;;;;2.50;0.63;;;;;;;;;;5320918;27;20094;-84
2022/06/25 14:18:43;;;;;;;2.53;0.63;;;;;;;;;;5286534;28;20044;-84
2022/06/25 14:21:23;;;;;;;0.77;0.52;;;;;;;;;;5286830;28;20040;-84
2022/06/25 14:23:57;;;;;;;3.40;0.63;;;;;;;;;;5305485;28;20059;-83
2022/06/25 14:26:29;;;;;;;1.77;0.52;;;;;;;;;;5306365;27;20028;-84
2022/06/25 14:29:03;;;;;;;1.60;0.60;;;;;;;;;;5302904;28;20032;-84
2022/06/25 14:31:40;;;;;;;3.03;0.50;;;;;;;;;;5308126;28;20020;-84
2022/06/25 14:34:11;;;;;;;0.40;0.40;;;;;;;;;;5325820;28;20051;-84
2022/06/25 14:42:29;;;;;;;1.55;0.50;;;;;;;;;;5306797;27;20054;-84
2022/06/25 14:45:10;;;;;;;2.42;0.68;;;;;;;;;;5318425;27;20033;-84
2022/06/25 14:47:59;;;;;;;1.40;0.50;;;;;;;;;;5320217;28;20036;-85
2022/06/25 14:50:32;;;;;;;1.38;0.70;;;;;;;;;;5293917;28;20105;-85
2022/06/25 14:53:10;;;;;;;1.45;0.43;;;;;;;;;;5321954;27;20115;-84
2022/06/25 14:55:41;;;;;;;3.83;0.52;;;;;;;;;;5285040;28;20025;-85
2022/06/25 14:58:14;;;;;;;1.87;0.50;;;;;;;;;;5315272;28;20027;-84
2022/06/25 15:00:53;;;;;;;2.42;0.80;;;;;;;;;;5340782;27;20281;-84
2022/06/25 15:03:24;;;;;;;1.10;1.10;;;;;;;;;;5308773;27;20397;-84
2022/06/25 15:05:56;;;;;;;0.88;0.60;;;;;;;;;;5305719;28;20177;-85
2022/06/25 15:08:28;;;;;;;2.20;0.57;;;;;;;;;;5341786;27;20024;-85
2022/06/25 15:11:04;;;;;;;3.13;0.60;;;;;;;;;;5306955;28;20030;-84
2022/06/25 15:13:44;;;;;;;1.13;0.50;;;;;;;;;;5303282;27;20032;-85
2022/06/25 15:16:18;;;;;;;3.22;0.70;;;;;;;;;;5304281;28;20043;-84
2022/06/25 15:18:55;;;;;;;1.85;0.50;;;;;;;;;;5286634;27;20054;-84
2022/06/25 15:21:36;;;;;;;1.13;0.50;;;;;;;;;;5285251;28;20040;-84
2022/06/25 15:24:10;;;;;;;0.80;0.45;;;;;;;;;;5322363;28;20112;-85
2022/06/25 15:26:44;;;;;;;0.50;0.50;;;;;;;;;;5332345;27;20130;-85
2022/06/25 15:29:54;;;;;;;1.05;0.60;;;;;;;;;;5300807;28;20588;-85
2022/06/25 15:32:25;;;;;;;0.63;0.45;;;;;;;;;;5323539;27;20119;-84
2022/06/25 15:34:59;;;;;;;1.30;0.50;;;;;;;;;;5318193;27;20452;-85
2022/06/25 15:37:30;;;;;;;2.63;0.40;;;;;;;;;;5306287;28;20389;-85
2022/06/25 15:40:03;;;;;;;1.83;0.50;;;;;;;;;;5327115;27;20489;-84
2022/06/25 15:42:39;;;;;;;3.33;0.70;;;;;;;;;;5304707;28;20422;-84
2022/06/25 15:45:13;;;;;;;1.00;0.65;;;;;;;;;;5284399;28;20032;-84